createdAt,value
2018-07-06T00:00:52.053Z,1012.88
2018-07-06T00:01:52.018Z,1012.85
2018-07-06T00:02:51.976Z,1012.84
2018-07-06T00:03:51.938Z,1012.82
2018-07-06T00:04:51.897Z,1012.89
2018-07-06T00:05:51.858Z,1012.84
2018-07-06T00:06:51.817Z,1012.84
2018-07-06T00:07:51.779Z,1012.85
2018-07-06T00:08:51.743Z,1012.81
2018-07-06T00:09:51.695Z,1012.90
2018-07-06T00:10:51.712Z,1012.89
2018-07-06T00:11:51.616Z,1012.92
2018-07-06T00:12:51.577Z,1012.92
2018-07-06T00:13:51.536Z,1012.94
2018-07-06T00:14:51.497Z,1012.92
2018-07-06T00:15:51.458Z,1012.90
2018-07-06T00:16:51.416Z,1012.91
2018-07-06T00:17:51.378Z,1012.91
2018-07-06T00:18:51.339Z,1012.95
2018-07-06T00:19:51.302Z,1012.94
2018-07-06T00:20:51.257Z,1012.88
2018-07-06T00:21:51.225Z,1012.92
2018-07-06T00:22:51.174Z,1012.91
2018-07-06T00:23:51.139Z,1012.93
2018-07-06T00:24:51.093Z,1012.93
2018-07-06T00:25:51.055Z,1012.92
2018-07-06T00:26:51.021Z,1012.93
2018-07-06T00:27:50.978Z,1012.93
2018-07-06T00:28:50.942Z,1012.94
2018-07-06T00:29:50.896Z,1012.95
2018-07-06T00:30:50.858Z,1012.94
2018-07-06T00:31:50.817Z,1012.91
2018-07-06T00:32:50.778Z,1012.95
2018-07-06T00:33:50.737Z,1012.95
2018-07-06T00:34:50.701Z,1012.95
2018-07-06T00:35:50.657Z,1012.91
2018-07-06T00:36:50.667Z,1012.92
2018-07-06T00:37:50.574Z,1012.93
2018-07-06T00:38:50.542Z,1012.92
2018-07-06T00:39:50.496Z,1012.99
2018-07-06T00:40:50.461Z,1013.00
2018-07-06T00:41:50.421Z,1012.99
2018-07-06T00:42:50.381Z,1013.01
2018-07-06T00:43:50.344Z,1012.98
2018-07-06T00:44:50.301Z,1013.01
2018-07-06T00:45:50.259Z,1013.01
2018-07-06T00:46:50.215Z,1013.01
2018-07-06T00:47:50.175Z,1013.03
2018-07-06T00:48:50.151Z,1013.01
2018-07-06T00:49:50.094Z,1013.01
2018-07-06T00:50:50.067Z,1013.05
2018-07-06T00:51:50.017Z,1013.03
2018-07-06T00:52:49.978Z,1013.03
2018-07-06T00:53:49.934Z,1013.05
2018-07-06T00:54:49.911Z,1013.04
2018-07-06T00:55:49.860Z,1013.06
2018-07-06T00:56:49.822Z,1013.08
2018-07-06T00:57:49.791Z,1013.06
2018-07-06T00:58:49.739Z,1013.10
2018-07-06T00:59:49.704Z,1013.09
2018-07-06T01:00:49.659Z,1013.14
2018-07-06T01:01:49.763Z,1013.13
2018-07-06T01:02:49.582Z,1013.15
2018-07-06T01:03:49.538Z,1013.18
2018-07-06T01:04:49.497Z,1013.20
2018-07-06T01:05:49.460Z,1013.21
2018-07-06T01:06:49.420Z,1013.22
2018-07-06T01:07:49.385Z,1013.24
2018-07-06T01:08:49.337Z,1013.22
2018-07-06T01:09:49.293Z,1013.23
2018-07-06T01:10:49.261Z,1013.18
2018-07-06T01:11:49.219Z,1013.24
2018-07-06T01:12:49.184Z,1013.21
2018-07-06T01:13:49.139Z,1013.21
2018-07-06T01:14:49.100Z,1013.20
2018-07-06T01:15:49.058Z,1013.18
2018-07-06T01:16:49.016Z,1013.17
2018-07-06T01:17:48.977Z,1013.16
2018-07-06T01:18:48.941Z,1013.17
2018-07-06T01:19:48.901Z,1013.16
2018-07-06T01:20:48.857Z,1013.20
2018-07-06T01:21:48.821Z,1013.18
2018-07-06T01:22:48.781Z,1013.19
2018-07-06T01:23:48.746Z,1013.22
2018-07-06T01:24:48.700Z,1013.21
2018-07-06T01:25:48.652Z,1013.22
2018-07-06T01:26:48.626Z,1013.23
2018-07-06T01:27:48.582Z,1013.29
2018-07-06T01:28:48.540Z,1013.23
2018-07-06T01:29:48.500Z,1013.26
2018-07-06T01:30:48.461Z,1013.28
2018-07-06T01:31:48.417Z,1013.28
2018-07-06T01:32:48.393Z,1013.26
2018-07-06T01:33:48.340Z,1013.29
2018-07-06T01:34:48.298Z,1013.27
2018-07-06T01:35:48.260Z,1013.32
2018-07-06T01:36:48.218Z,1013.27
2018-07-06T01:37:48.180Z,1013.29
2018-07-06T01:38:48.141Z,1013.30
2018-07-06T01:39:48.099Z,1013.28
2018-07-06T01:40:48.061Z,1013.25
2018-07-06T01:41:48.020Z,1013.27
2018-07-06T01:42:47.981Z,1013.32
2018-07-06T01:43:47.943Z,1013.32
2018-07-06T01:44:47.900Z,1013.34
2018-07-06T01:45:47.868Z,1013.34
2018-07-06T01:46:47.821Z,1013.35
2018-07-06T01:47:47.786Z,1013.32
2018-07-06T01:48:47.744Z,1013.34
2018-07-06T01:49:47.701Z,1013.36
2018-07-06T01:50:47.662Z,1013.36
2018-07-06T01:51:47.624Z,1013.40
2018-07-06T01:52:47.579Z,1013.42
2018-07-06T01:53:47.540Z,1013.41
2018-07-06T01:54:47.503Z,1013.42
2018-07-06T01:55:47.461Z,1013.44
2018-07-06T01:56:47.416Z,1013.47
2018-07-06T01:57:47.378Z,1013.47
2018-07-06T01:58:47.336Z,1013.48
2018-07-06T01:59:47.304Z,1013.47
2018-07-06T02:00:47.263Z,1013.46
2018-07-06T02:01:47.225Z,1013.50
2018-07-06T02:02:47.180Z,1013.50
2018-07-06T02:03:47.135Z,1013.51
2018-07-06T02:04:47.097Z,1013.51
2018-07-06T02:05:47.062Z,1013.49
2018-07-06T02:06:47.020Z,1013.52
2018-07-06T02:07:46.982Z,1013.54
2018-07-06T02:08:46.941Z,1013.58
2018-07-06T02:09:46.906Z,1013.57
2018-07-06T02:10:46.905Z,1013.60
2018-07-06T02:11:46.823Z,1013.62
2018-07-06T02:12:46.782Z,1013.62
2018-07-06T02:13:46.740Z,1013.62
2018-07-06T02:14:46.700Z,1013.58
2018-07-06T02:15:46.661Z,1013.61
2018-07-06T02:16:46.621Z,1013.64
2018-07-06T02:17:46.583Z,1013.66
2018-07-06T02:18:46.540Z,1013.67
2018-07-06T02:19:46.507Z,1013.66
2018-07-06T02:20:46.461Z,1013.66
2018-07-06T02:21:46.420Z,1013.66
2018-07-06T02:22:46.382Z,1013.70
2018-07-06T02:23:46.339Z,1013.69
2018-07-06T02:24:46.308Z,1013.69
2018-07-06T02:25:46.263Z,1013.75
2018-07-06T02:26:46.223Z,1013.74
2018-07-06T02:27:46.179Z,1013.73
2018-07-06T02:28:46.140Z,1013.76
2018-07-06T02:29:46.110Z,1013.71
2018-07-06T02:30:46.070Z,1013.72
2018-07-06T02:31:46.038Z,1013.72
2018-07-06T02:32:45.984Z,1013.73
2018-07-06T02:33:45.945Z,1013.74
2018-07-06T02:34:45.902Z,1013.72
2018-07-06T02:35:45.870Z,1013.74
2018-07-06T02:36:45.822Z,1013.74
2018-07-06T02:37:45.784Z,1013.74
2018-07-06T02:38:45.748Z,1013.79
2018-07-06T02:39:45.710Z,1013.79
2018-07-06T02:40:45.665Z,1013.79
2018-07-06T02:41:45.623Z,1013.77
2018-07-06T02:42:45.585Z,1013.78
2018-07-06T02:43:45.551Z,1013.82
2018-07-06T02:44:45.501Z,1013.78
2018-07-06T02:45:45.462Z,1013.79
2018-07-06T02:46:45.424Z,1013.78
2018-07-06T02:47:45.379Z,1013.88
2018-07-06T02:48:45.359Z,1013.83
2018-07-06T02:49:45.304Z,1013.87
2018-07-06T02:50:45.263Z,1013.88
2018-07-06T02:51:45.227Z,1013.85
2018-07-06T02:52:45.183Z,1013.91
2018-07-06T02:53:45.148Z,1013.88
2018-07-06T02:54:45.108Z,1013.89
2018-07-06T02:55:45.071Z,1013.92
2018-07-06T02:56:45.027Z,1013.92
2018-07-06T02:57:44.984Z,1013.93
2018-07-06T02:58:44.943Z,1013.92
2018-07-06T02:59:44.904Z,1013.89
2018-07-06T03:00:44.869Z,1013.91
2018-07-06T03:01:44.824Z,1013.93
2018-07-06T03:02:44.783Z,1013.90
2018-07-06T03:03:44.745Z,1013.93
2018-07-06T03:04:44.703Z,1013.86
2018-07-06T03:05:44.672Z,1013.87
2018-07-06T03:06:44.622Z,1013.87
2018-07-06T03:07:44.582Z,1013.91
2018-07-06T03:08:44.544Z,1013.92
2018-07-06T03:09:44.507Z,1013.92
2018-07-06T03:10:44.461Z,1013.92
2018-07-06T03:11:44.422Z,1013.90
2018-07-06T03:12:44.382Z,1013.91
2018-07-06T03:13:44.343Z,1013.90
2018-07-06T03:14:44.303Z,1013.98
2018-07-06T03:15:44.258Z,1013.96
2018-07-06T03:16:44.238Z,1013.91
2018-07-06T03:17:44.198Z,1013.91
2018-07-06T03:18:44.144Z,1013.96
2018-07-06T03:19:44.103Z,1013.98
2018-07-06T03:20:44.064Z,1013.98
2018-07-06T03:21:44.026Z,1013.97
2018-07-06T03:22:43.984Z,1013.96
2018-07-06T03:23:43.947Z,1013.99
2018-07-06T03:24:43.901Z,1013.98
2018-07-06T03:25:43.866Z,1013.97
2018-07-06T03:26:43.835Z,1013.99
2018-07-06T03:27:43.795Z,1013.97
2018-07-06T03:28:44.171Z,1014.00
2018-07-06T03:29:43.701Z,1014.03
2018-07-06T03:30:43.679Z,1014.02
2018-07-06T03:31:43.624Z,1014.07
2018-07-06T03:32:43.588Z,1014.06
2018-07-06T03:33:43.547Z,1014.04
2018-07-06T03:34:43.508Z,1014.04
2018-07-06T03:35:43.470Z,1014.05
2018-07-06T03:36:43.421Z,1014.05
2018-07-06T03:37:43.383Z,1014.01
2018-07-06T03:38:43.343Z,1014.06
2018-07-06T03:39:43.309Z,1014.04
2018-07-06T03:40:43.265Z,1014.06
2018-07-06T03:41:43.239Z,1014.06
2018-07-06T03:42:43.184Z,1014.09
2018-07-06T03:43:43.147Z,1014.07
2018-07-06T03:44:43.110Z,1014.04
2018-07-06T03:45:43.070Z,1014.09
2018-07-06T03:46:43.021Z,1014.09
2018-07-06T03:47:42.990Z,1014.14
2018-07-06T03:48:42.944Z,1014.11
2018-07-06T03:49:42.907Z,1014.12
2018-07-06T03:50:42.866Z,1014.10
2018-07-06T03:51:42.821Z,1014.15
2018-07-06T03:52:42.789Z,1014.16
2018-07-06T03:53:42.747Z,1014.16
2018-07-06T03:54:42.706Z,1014.14
2018-07-06T03:55:42.665Z,1014.15
2018-07-06T03:56:42.626Z,1014.21
2018-07-06T03:57:42.589Z,1014.18
2018-07-06T03:58:42.542Z,1014.20
2018-07-06T03:59:42.514Z,1014.21
2018-07-06T04:00:42.463Z,1014.21
2018-07-06T04:01:42.421Z,1014.23
2018-07-06T04:02:42.389Z,1014.23
2018-07-06T04:03:42.349Z,1014.23
2018-07-06T04:04:42.304Z,1014.23
2018-07-06T04:05:42.269Z,1014.23
2018-07-06T04:06:42.227Z,1014.27
2018-07-06T04:07:42.185Z,1014.24
2018-07-06T04:08:42.141Z,1014.26
2018-07-06T04:09:42.103Z,1014.21
2018-07-06T04:10:42.071Z,1014.25
2018-07-06T04:11:42.027Z,1014.25
2018-07-06T04:12:41.985Z,1014.26
2018-07-06T04:13:41.950Z,1014.26
2018-07-06T04:14:41.907Z,1014.27
2018-07-06T04:15:41.863Z,1014.27
2018-07-06T04:16:41.838Z,1014.30
2018-07-06T04:17:41.789Z,1014.35
2018-07-06T04:18:41.747Z,1014.34
2018-07-06T04:19:41.703Z,1014.39
2018-07-06T04:20:41.655Z,1014.42
2018-07-06T04:21:41.632Z,1014.39
2018-07-06T04:22:41.584Z,1014.38
2018-07-06T04:23:41.546Z,1014.38
2018-07-06T04:24:41.507Z,1014.39
2018-07-06T04:25:41.465Z,1014.40
2018-07-06T04:26:41.424Z,1014.41
2018-07-06T04:27:41.385Z,1014.40
2018-07-06T04:28:41.344Z,1014.43
2018-07-06T04:29:41.307Z,1014.42
2018-07-06T04:30:41.276Z,1014.46
2018-07-06T04:31:41.229Z,1014.46
2018-07-06T04:32:41.176Z,1014.52
2018-07-06T04:33:41.148Z,1014.53
2018-07-06T04:34:41.109Z,1014.52
2018-07-06T04:35:41.067Z,1014.57
2018-07-06T04:36:41.025Z,1014.59
2018-07-06T04:37:40.984Z,1014.56
2018-07-06T04:38:40.942Z,1014.60
2018-07-06T04:39:40.907Z,1014.58
2018-07-06T04:40:40.867Z,1014.63
2018-07-06T04:41:40.827Z,1014.65
2018-07-06T04:42:40.789Z,1014.65
2018-07-06T04:43:40.747Z,1014.70
2018-07-06T04:44:40.699Z,1014.67
2018-07-06T04:45:40.666Z,1014.68
2018-07-06T04:46:40.628Z,1014.69
2018-07-06T04:47:40.586Z,1014.73
2018-07-06T04:48:40.544Z,1014.71
2018-07-06T04:49:40.501Z,1014.71
2018-07-06T04:50:40.469Z,1014.77
2018-07-06T04:51:40.427Z,1014.77
2018-07-06T04:52:40.386Z,1014.82
2018-07-06T04:53:40.344Z,1014.85
2018-07-06T04:54:40.308Z,1014.86
2018-07-06T04:55:40.264Z,1014.83
2018-07-06T04:56:40.226Z,1014.81
2018-07-06T04:57:40.206Z,1014.86
2018-07-06T04:58:40.147Z,1014.87
2018-07-06T04:59:40.105Z,1014.82
2018-07-06T05:00:40.060Z,1014.83
2018-07-06T05:01:40.025Z,1014.86
2018-07-06T05:02:39.986Z,1014.83
2018-07-06T05:03:39.948Z,1014.83
2018-07-06T05:04:39.904Z,1014.84
2018-07-06T05:05:39.866Z,1014.86
2018-07-06T05:06:39.831Z,1014.88
2018-07-06T05:07:39.792Z,1014.89
2018-07-06T05:08:39.738Z,1014.89
2018-07-06T05:09:39.703Z,1014.89
2018-07-06T05:10:39.674Z,1014.90
2018-07-06T05:11:39.630Z,1014.92
2018-07-06T05:12:39.590Z,1014.89
2018-07-06T05:13:39.537Z,1014.91
2018-07-06T05:14:39.502Z,1014.90
2018-07-06T05:15:39.465Z,1014.90
2018-07-06T05:16:39.475Z,1014.91
2018-07-06T05:17:39.379Z,1014.91
2018-07-06T05:18:39.341Z,1014.93
2018-07-06T05:19:39.300Z,1014.97
2018-07-06T05:20:39.261Z,1014.97
2018-07-06T05:21:39.221Z,1014.97
2018-07-06T05:22:39.199Z,1015.00
2018-07-06T05:23:39.133Z,1014.99
2018-07-06T05:24:39.094Z,1014.98
2018-07-06T05:25:39.056Z,1015.01
2018-07-06T05:26:39.019Z,1015.03
2018-07-06T05:27:38.976Z,1015.00
2018-07-06T05:28:38.935Z,1014.97
2018-07-06T05:29:38.895Z,1014.98
2018-07-06T05:30:38.853Z,1015.00
2018-07-06T05:31:38.821Z,1015.03
2018-07-06T05:32:38.780Z,1015.06
2018-07-06T05:33:38.735Z,1015.04
2018-07-06T05:34:38.693Z,1015.08
2018-07-06T05:35:38.653Z,1015.09
2018-07-06T05:36:38.613Z,1015.07
2018-07-06T05:37:38.571Z,1015.05
2018-07-06T05:38:38.539Z,1015.05
2018-07-06T05:39:38.491Z,1015.05
2018-07-06T05:40:38.449Z,1015.05
2018-07-06T05:41:38.411Z,1015.06
2018-07-06T05:42:38.373Z,1015.09
2018-07-06T05:43:38.334Z,1015.12
2018-07-06T05:44:38.289Z,1015.11
2018-07-06T05:45:38.248Z,1015.14
2018-07-06T05:46:38.209Z,1015.15
2018-07-06T05:47:38.170Z,1015.16
2018-07-06T05:48:38.126Z,1015.17
2018-07-06T05:49:38.094Z,1015.22
2018-07-06T05:50:38.051Z,1015.22
2018-07-06T05:51:38.016Z,1015.24
2018-07-06T05:52:37.973Z,1015.28
2018-07-06T05:53:37.923Z,1015.30
2018-07-06T05:54:37.884Z,1015.28
2018-07-06T05:55:37.847Z,1015.31
2018-07-06T05:56:37.804Z,1015.31
2018-07-06T05:57:37.769Z,1015.32
2018-07-06T05:58:37.725Z,1015.31
2018-07-06T05:59:37.682Z,1015.37
2018-07-06T06:00:37.642Z,1015.35
2018-07-06T06:01:37.604Z,1015.35
2018-07-06T06:02:37.565Z,1015.38
2018-07-06T06:03:37.527Z,1015.40
2018-07-06T06:04:37.502Z,1015.41
2018-07-06T06:05:37.444Z,1015.42
2018-07-06T06:06:37.406Z,1015.41
2018-07-06T06:07:37.367Z,1015.45
2018-07-06T06:08:37.329Z,1015.47
2018-07-06T06:09:37.291Z,1015.52
2018-07-06T06:10:37.240Z,1015.53
2018-07-06T06:11:37.202Z,1015.59
2018-07-06T06:12:37.167Z,1015.59
2018-07-06T06:13:37.119Z,1015.59
2018-07-06T06:14:37.082Z,1015.60
2018-07-06T06:15:37.041Z,1015.62
2018-07-06T06:16:36.999Z,1015.61
2018-07-06T06:17:36.957Z,1015.65
2018-07-06T06:18:36.993Z,1015.65
2018-07-06T06:19:36.882Z,1015.67
2018-07-06T06:20:36.843Z,1015.64
2018-07-06T06:21:36.802Z,1015.71
2018-07-06T06:22:36.760Z,1015.66
2018-07-06T06:23:36.714Z,1015.67
2018-07-06T06:24:36.682Z,1015.67
2018-07-06T06:25:36.644Z,1015.71
2018-07-06T06:26:36.596Z,1015.69
2018-07-06T06:27:36.554Z,1015.69
2018-07-06T06:28:36.515Z,1015.73
2018-07-06T06:29:36.476Z,1015.73
2018-07-06T06:30:36.435Z,1015.73
2018-07-06T06:31:36.393Z,1015.76
2018-07-06T06:32:36.365Z,1015.73
2018-07-06T06:33:36.365Z,1015.76
2018-07-06T06:34:36.287Z,1015.75
2018-07-06T06:35:36.233Z,1015.75
2018-07-06T06:36:36.200Z,1015.80
2018-07-06T06:37:36.158Z,1015.78
2018-07-06T06:38:36.115Z,1015.79
2018-07-06T06:39:36.069Z,1015.78
2018-07-06T06:40:36.038Z,1015.77
2018-07-06T06:41:35.998Z,1015.81
2018-07-06T06:42:35.951Z,1015.82
2018-07-06T06:43:35.916Z,1015.78
2018-07-06T06:44:35.922Z,1015.80
2018-07-06T06:45:35.835Z,1015.83
2018-07-06T06:46:35.849Z,1015.86
2018-07-06T06:47:35.751Z,1015.83
2018-07-06T06:48:35.706Z,1015.81
2018-07-06T06:49:35.670Z,1015.89
2018-07-06T06:50:35.635Z,1015.88
2018-07-06T06:51:35.593Z,1015.89
2018-07-06T06:52:35.551Z,1015.85
2018-07-06T06:53:35.510Z,1015.87
2018-07-06T06:54:35.469Z,1015.86
2018-07-06T06:55:35.431Z,1015.89
2018-07-06T06:56:35.392Z,1015.93
2018-07-06T06:57:35.356Z,1015.93
2018-07-06T06:58:35.315Z,1015.86
2018-07-06T06:59:35.280Z,1015.94
2018-07-06T07:00:35.229Z,1015.91
2018-07-06T07:01:35.197Z,1015.91
2018-07-06T07:02:35.149Z,1015.90
2018-07-06T07:03:35.109Z,1015.92
2018-07-06T07:04:35.070Z,1015.92
2018-07-06T07:05:35.029Z,1015.90
2018-07-06T07:06:34.987Z,1015.94
2018-07-06T07:07:35.136Z,1015.94
2018-07-06T07:08:34.939Z,1015.96
2018-07-06T07:09:34.883Z,1015.94
2018-07-06T07:10:34.831Z,1015.93
2018-07-06T07:11:34.783Z,1015.95
2018-07-06T07:12:34.770Z,1015.94
2018-07-06T07:13:34.742Z,1015.96
2018-07-06T07:14:34.676Z,1015.97
2018-07-06T07:15:34.631Z,1015.95
2018-07-06T07:16:34.583Z,1015.94
2018-07-06T07:17:34.545Z,1015.94
2018-07-06T07:18:34.508Z,1015.96
2018-07-06T07:19:34.466Z,1015.96
2018-07-06T07:20:34.435Z,1015.94
2018-07-06T07:21:34.383Z,1015.95
2018-07-06T07:22:34.345Z,1015.96
2018-07-06T07:23:34.355Z,1015.97
2018-07-06T07:24:34.270Z,1015.91
2018-07-06T07:25:34.228Z,1015.95
2018-07-06T07:26:34.193Z,1015.94
2018-07-06T07:27:34.139Z,1015.95
2018-07-06T07:28:34.109Z,1015.96
2018-07-06T07:29:34.064Z,1015.97
2018-07-06T07:30:34.032Z,1015.99
2018-07-06T07:31:33.981Z,1016.00
2018-07-06T07:32:33.942Z,1016.00
2018-07-06T07:33:33.903Z,1016.00
2018-07-06T07:34:33.863Z,1016.01
2018-07-06T07:35:33.820Z,1016.04
2018-07-06T07:36:33.776Z,1016.06
2018-07-06T07:37:33.744Z,1016.01
2018-07-06T07:38:33.705Z,1016.05
2018-07-06T07:39:33.663Z,1016.02
2018-07-06T07:40:33.625Z,1016.02
2018-07-06T07:41:33.580Z,1016.05
2018-07-06T07:42:33.542Z,1016.08
2018-07-06T07:43:33.502Z,1016.08
2018-07-06T07:44:33.464Z,1016.08
2018-07-06T07:45:33.420Z,1016.14
2018-07-06T07:46:33.444Z,1016.09
2018-07-06T07:47:33.340Z,1016.12
2018-07-06T07:48:33.312Z,1016.18
2018-07-06T07:49:33.261Z,1016.11
2018-07-06T07:50:33.220Z,1016.11
2018-07-06T07:51:33.181Z,1016.15
2018-07-06T07:52:33.136Z,1016.12
2018-07-06T07:53:33.105Z,1016.17
2018-07-06T07:54:33.064Z,1016.14
2018-07-06T07:55:33.018Z,1016.15
2018-07-06T07:56:32.990Z,1016.16
2018-07-06T07:57:32.938Z,1016.19
2018-07-06T07:58:32.897Z,1016.21
2018-07-06T07:59:32.868Z,1016.27
2018-07-06T08:00:32.953Z,1016.25
2018-07-06T08:01:32.824Z,1016.24
2018-07-06T08:02:32.740Z,1016.23
2018-07-06T08:03:32.706Z,1016.23
2018-07-06T08:04:32.667Z,1016.27
2018-07-06T08:05:32.616Z,1016.29
2018-07-06T08:06:32.624Z,1016.28
2018-07-06T08:07:32.547Z,1016.31
2018-07-06T08:08:32.499Z,1016.35
2018-07-06T08:09:32.454Z,1016.31
2018-07-06T08:10:32.476Z,1016.36
2018-07-06T08:11:35.446Z,1016.36
2018-07-06T08:12:32.501Z,1016.36
2018-07-06T08:13:32.361Z,1016.36
2018-07-06T08:14:32.462Z,1016.38
2018-07-06T08:15:32.316Z,1016.40
2018-07-06T08:16:32.177Z,1016.41
2018-07-06T08:17:32.135Z,1016.42
2018-07-06T08:18:32.100Z,1016.42
2018-07-06T08:19:32.060Z,1016.43
2018-07-06T08:20:32.019Z,1016.45
2018-07-06T08:21:32.014Z,1016.47
2018-07-06T08:22:31.951Z,1016.52
2018-07-06T08:23:31.891Z,1016.46
2018-07-06T08:24:31.855Z,1016.52
2018-07-06T08:25:31.872Z,1016.47
2018-07-06T08:26:31.778Z,1016.53
2018-07-06T08:27:31.733Z,1016.55
2018-07-06T08:28:31.696Z,1016.52
2018-07-06T08:29:31.655Z,1016.52
2018-07-06T08:30:31.616Z,1016.54
2018-07-06T08:31:31.617Z,1016.53
2018-07-06T08:32:31.543Z,1016.49
2018-07-06T08:33:31.492Z,1016.51
2018-07-06T08:34:31.456Z,1016.51
2018-07-06T08:35:31.411Z,1016.53
2018-07-06T08:36:31.400Z,1016.52
2018-07-06T08:37:31.335Z,1016.50
2018-07-06T08:38:31.293Z,1016.56
2018-07-06T08:39:31.272Z,1016.56
2018-07-06T08:40:31.215Z,1016.58
2018-07-06T08:41:31.174Z,1016.58
2018-07-06T08:42:31.135Z,1016.55
2018-07-06T08:43:31.104Z,1016.59
2018-07-06T08:44:31.052Z,1016.60
2018-07-06T08:45:31.013Z,1016.65
2018-07-06T08:46:30.971Z,1016.61
2018-07-06T08:47:30.930Z,1016.64
2018-07-06T08:48:30.890Z,1016.66
2018-07-06T08:49:30.855Z,1016.64
2018-07-06T15:09:15.342Z,1016.55
2018-07-06T15:10:15.249Z,1016.58
2018-07-06T15:11:15.207Z,1016.57
2018-07-06T15:12:15.207Z,1016.57
2018-07-06T15:13:15.158Z,1016.59
2018-07-06T15:14:15.082Z,1016.58
2018-07-06T15:15:15.041Z,1016.56
2018-07-06T15:16:15.003Z,1016.53
2018-07-06T15:17:14.957Z,1016.56
2018-07-06T15:18:14.994Z,1016.58
2018-07-06T15:19:14.879Z,1016.59
2018-07-06T15:20:14.842Z,1016.61
2018-07-06T15:21:14.796Z,1016.59
2018-07-06T15:22:14.760Z,1016.61
2018-07-06T15:23:14.722Z,1016.60
2018-07-06T15:24:14.735Z,1016.58
2018-07-06T15:25:14.643Z,1016.60
2018-07-06T15:26:14.603Z,1016.60
2018-07-06T15:27:14.556Z,1016.59
2018-07-06T15:28:14.520Z,1016.61
2018-07-06T15:29:14.475Z,1016.64
2018-07-06T15:30:14.443Z,1016.63
2018-07-06T15:31:14.402Z,1016.59
2018-07-06T15:32:14.353Z,1016.63
2018-07-06T15:33:14.322Z,1016.61
2018-07-06T15:34:14.293Z,1016.61
2018-07-06T15:35:14.234Z,1016.58
2018-07-06T15:36:14.195Z,1016.62
2018-07-06T15:37:14.164Z,1016.58
2018-07-06T15:38:14.114Z,1016.54
2018-07-06T15:39:14.072Z,1016.53
2018-07-06T15:40:14.034Z,1016.53
2018-07-06T15:41:13.996Z,1016.54
2018-07-06T15:42:13.957Z,1016.56
2018-07-06T15:43:13.926Z,1016.56
2018-07-06T15:44:13.867Z,1016.56
2018-07-06T15:45:13.829Z,1016.54
2018-07-06T15:46:13.791Z,1016.58
2018-07-06T15:47:13.750Z,1016.54
2018-07-06T15:48:13.702Z,1016.53
2018-07-06T15:49:13.673Z,1016.53
2018-07-06T15:50:13.632Z,1016.55
2018-07-06T15:51:13.593Z,1016.53
2018-07-06T15:52:13.551Z,1016.51
2018-07-06T15:53:13.510Z,1016.59
2018-07-06T15:54:13.479Z,1016.50
2018-07-06T15:55:13.450Z,1016.53
2018-07-06T15:56:13.389Z,1016.46
2018-07-06T15:57:13.407Z,1016.53
2018-07-06T15:58:13.307Z,1016.47
2018-07-06T15:59:13.272Z,1016.56
2018-07-06T16:00:13.229Z,1016.55
2018-07-06T16:01:13.192Z,1016.50
2018-07-06T16:02:13.158Z,1016.49
2018-07-06T16:03:13.111Z,1016.47
2018-07-06T16:04:13.069Z,1016.53
2018-07-06T16:05:13.027Z,1016.48
2018-07-06T16:06:12.989Z,1016.51
2018-07-06T16:07:12.950Z,1016.47
2018-07-06T16:08:12.911Z,1016.50
2018-07-06T16:09:12.869Z,1016.54
2018-07-06T16:10:12.833Z,1016.45
2018-07-06T16:11:12.788Z,1016.50
2018-07-06T16:12:12.750Z,1016.51
2018-07-06T16:13:12.707Z,1016.49
2018-07-06T16:14:12.789Z,1016.47
2018-07-06T16:15:12.631Z,1016.47
2018-07-06T16:16:12.583Z,1016.42
2018-07-06T16:17:12.541Z,1016.46
2018-07-06T16:18:12.504Z,1016.43
2018-07-06T16:19:12.466Z,1016.42
2018-07-06T16:20:12.424Z,1016.46
2018-07-06T16:21:12.390Z,1016.43
2018-07-06T16:22:12.345Z,1016.45
2018-07-06T16:23:12.306Z,1016.45
2018-07-06T16:24:12.264Z,1016.41
2018-07-06T16:25:12.226Z,1016.44
2018-07-06T16:26:12.181Z,1016.37
2018-07-06T16:27:12.152Z,1016.40
2018-07-06T16:28:12.104Z,1016.39
2018-07-06T16:29:12.069Z,1016.44
2018-07-06T16:30:12.029Z,1016.41
2018-07-06T16:31:11.982Z,1016.40
2018-07-06T16:32:11.947Z,1016.40
2018-07-06T16:33:11.901Z,1016.37
2018-07-06T16:34:11.863Z,1016.43
2018-07-06T16:35:11.819Z,1016.37
2018-07-06T16:36:11.781Z,1016.39
2018-07-06T16:37:11.739Z,1016.40
2018-07-06T16:38:11.698Z,1016.36
2018-07-06T16:39:11.659Z,1016.37
2018-07-06T16:40:11.622Z,1016.41
2018-07-06T16:41:11.593Z,1016.37
2018-07-06T16:42:11.535Z,1016.38
2018-07-06T16:43:11.490Z,1016.39
2018-07-06T16:44:11.456Z,1016.40
2018-07-06T16:45:11.423Z,1016.40
2018-07-06T16:46:11.379Z,1016.36
2018-07-06T16:47:11.340Z,1016.36
2018-07-06T16:48:11.293Z,1016.33
2018-07-06T16:49:11.256Z,1016.37
2018-07-06T16:50:11.216Z,1016.37
2018-07-06T16:51:11.189Z,1016.39
2018-07-06T16:52:11.165Z,1016.39
2018-07-06T16:53:11.094Z,1016.41
2018-07-06T16:54:11.056Z,1016.40
2018-07-06T16:55:11.018Z,1016.39
2018-07-06T16:56:10.983Z,1016.40
2018-07-06T16:57:10.928Z,1016.42
2018-07-06T16:58:10.903Z,1016.36
2018-07-06T16:59:10.859Z,1016.42
2018-07-06T17:00:10.811Z,1016.44
2018-07-06T17:01:10.814Z,1016.43
2018-07-06T17:02:10.740Z,1016.45
2018-07-06T17:03:10.691Z,1016.42
2018-07-06T17:04:10.652Z,1016.41
2018-07-06T17:05:10.621Z,1016.43
2018-07-06T17:06:10.582Z,1016.43
2018-07-06T17:07:10.535Z,1016.43
2018-07-06T17:08:10.495Z,1016.42
2018-07-06T17:09:10.456Z,1016.43
2018-07-06T17:10:10.414Z,1016.43
2018-07-06T17:11:10.376Z,1016.45
2018-07-06T17:12:10.334Z,1016.40
2018-07-06T17:13:10.285Z,1016.42
2018-07-06T17:14:10.253Z,1016.42
2018-07-06T17:15:10.214Z,1016.39
2018-07-06T17:16:10.170Z,1016.39
2018-07-06T17:17:10.129Z,1016.42
2018-07-06T17:18:10.099Z,1016.43
2018-07-06T17:19:10.064Z,1016.40
2018-07-06T17:20:10.013Z,1016.41
2018-07-06T17:21:10.022Z,1016.40
2018-07-06T17:22:09.932Z,1016.41
2018-07-06T17:23:09.887Z,1016.41
2018-07-06T17:24:09.848Z,1016.40
2018-07-06T17:25:09.810Z,1016.38
2018-07-06T17:26:09.771Z,1016.40
2018-07-06T17:27:09.730Z,1016.43
2018-07-06T17:28:09.688Z,1016.43
2018-07-06T17:29:09.656Z,1016.46
2018-07-06T17:30:09.609Z,1016.41
2018-07-06T17:31:09.569Z,1016.38
2018-07-06T17:32:09.529Z,1016.45
2018-07-06T17:33:09.486Z,1016.43
2018-07-06T17:34:09.444Z,1016.49
2018-07-06T17:35:09.404Z,1016.41
2018-07-06T17:36:09.361Z,1016.44
2018-07-06T17:37:09.326Z,1016.46
2018-07-06T17:38:09.283Z,1016.45
2018-07-06T17:39:09.252Z,1016.41
2018-07-06T17:40:09.206Z,1016.44
2018-07-06T17:41:09.162Z,1016.41
2018-07-06T17:42:09.126Z,1016.39
2018-07-06T17:43:09.085Z,1016.39
2018-07-06T17:44:09.046Z,1016.39
2018-07-06T17:45:09.005Z,1016.41
2018-07-06T17:46:08.963Z,1016.41
2018-07-06T17:47:08.919Z,1016.39
2018-07-06T17:48:08.890Z,1016.44
2018-07-06T17:49:08.831Z,1016.44
2018-07-06T17:50:08.803Z,1016.45
2018-07-06T17:51:08.762Z,1016.42
2018-07-06T17:52:08.730Z,1016.45
2018-07-06T17:53:08.682Z,1016.44
2018-07-06T17:54:08.634Z,1016.47
2018-07-06T17:55:08.609Z,1016.44
2018-07-06T17:56:08.557Z,1016.42
2018-07-06T17:57:08.528Z,1016.46
2018-07-06T17:58:08.481Z,1016.41
2018-07-06T17:59:08.440Z,1016.40
2018-07-06T18:00:08.402Z,1016.44
2018-07-06T18:01:08.358Z,1016.42
2018-07-06T18:02:08.317Z,1016.46
2018-07-06T18:03:08.285Z,1016.46
2018-07-06T18:04:08.236Z,1016.46
2018-07-06T18:05:08.198Z,1016.51
2018-07-06T18:06:08.159Z,1016.51
2018-07-06T18:07:08.121Z,1016.52
2018-07-06T18:08:08.078Z,1016.54
2018-07-06T18:09:08.050Z,1016.55
2018-07-06T18:10:07.997Z,1016.52
2018-07-06T18:11:07.959Z,1016.51
2018-07-06T18:12:07.917Z,1016.52
2018-07-06T18:13:07.876Z,1016.52
2018-07-06T18:14:07.843Z,1016.55
2018-07-06T18:15:07.787Z,1016.55
2018-07-06T18:16:07.759Z,1016.46
2018-07-06T18:17:07.714Z,1016.49
2018-07-06T18:18:07.673Z,1016.50
2018-07-06T18:19:07.634Z,1016.48
2018-07-06T18:20:07.596Z,1016.48
2018-07-06T18:21:07.554Z,1016.51
2018-07-06T18:22:07.526Z,1016.44
2018-07-06T18:23:07.607Z,1016.45
2018-07-06T18:24:07.429Z,1016.44